»·PEaware :: N8271G KSBP-KSBP

N8271G :: KSBP-KSBP

FLIGHT INFORMATION

Flight Status: Arrived
Operator: Privately registered:
United States
More flights under this callsign
Pilot: Simon B. (22905)
Aircraft: CESSNA 172 SKYHAWK
(C172)
More flights by this aircraft type
Origin: KSBP San Luis Co Regl
United States
Destination: KSBP San Luis Co Regl
United States
More flights between these airports :: More routes between these airports
Route: +
File this flight plan on PilotEdge
Remarks:
Altitude:
(Current/Filed)
0ft
Speed:
(Current/Filed)
0kts
Departed: 12-Jan-19 02:36 PM
Arrived: 12-Jan-19 03:08 PM
Distance/Time
Traveled:
0nm/0:32
Distance/Time
To Go:
Arrived

Flight Plot

Page will automatically refresh every two minutes.


Map Options




Map Legend


Flown Route
Filed Route
Departure Airport
Arrival Airport
Navaid (VOR, NDB)
Fix

Horizontal Profiles

Position Reports

Time Latitude Longitude Heading Altitude Ground
Speed
12-Jan-19 14:15 35.238248 -120.639994 308 216ft 0kts
12-Jan-19 14:16 35.238248 -120.639994 308 216ft 0kts
12-Jan-19 14:17 35.238248 -120.639994 308 216ft 0kts
12-Jan-19 14:18 35.238248 -120.639994 308 216ft 0kts
12-Jan-19 14:19 35.238248 -120.639994 308 216ft 0kts
12-Jan-19 14:20 35.238248 -120.639994 307 216ft 0kts
12-Jan-19 14:21 35.238248 -120.639994 307 216ft 0kts
12-Jan-19 14:22 35.238248 -120.639994 308 216ft 0kts
12-Jan-19 14:23 35.238248 -120.639994 307 216ft 0kts
12-Jan-19 14:24 35.238248 -120.639994 307 216ft 0kts
12-Jan-19 14:25 35.238248 -120.639994 307 216ft 0kts
12-Jan-19 14:26 35.238248 -120.639994 307 216ft 0kts
12-Jan-19 14:27 35.238248 -120.639994 307 216ft 0kts
12-Jan-19 14:28 35.238248 -120.639994 307 216ft 0kts
12-Jan-19 14:29 35.237245 -120.638944 123 216ft 12kts
12-Jan-19 14:30 35.234956 -120.634911 124 216ft 13kts
12-Jan-19 14:31 35.234076 -120.633965 212 216ft 0kts
12-Jan-19 14:32 35.234076 -120.633965 212 216ft 0kts
12-Jan-19 14:33 35.234076 -120.633965 212 216ft 0kts
12-Jan-19 14:34 35.233620 -120.634307 235 216ft 8kts
12-Jan-19 14:35 35.240223 -120.644550 308 378ft 73kts
12-Jan-19 14:36 35.251546 -120.665050 263 873ft 74kts
12-Jan-19 14:37 35.236962 -120.683045 215 1234ft 88kts
12-Jan-19 14:38 35.218565 -120.675027 110 1219ft 82kts
12-Jan-19 14:39 35.226337 -120.649811 62 1221ft 81kts
12-Jan-19 14:41 35.215036 -120.629004 142 1221ft 81kts
12-Jan-19 14:42 35.199346 -120.610332 92 1219ft 81kts
12-Jan-19 14:43 35.213818 -120.593540 339 1218ft 80kts
12-Jan-19 14:44 35.225357 -120.618453 295 894ft 83kts
12-Jan-19 14:45 35.236049 -120.638794 304 216ft 68kts
12-Jan-19 14:46 35.246387 -120.658950 301 747ft 69kts
12-Jan-19 14:47 35.245607 -120.675196 206 1206ft 66kts
12-Jan-19 14:48 35.228701 -120.660421 120 1197ft 85kts
12-Jan-19 14:49 35.216763 -120.635866 120 1198ft 83kts
12-Jan-19 14:50 35.211306 -120.610841 45 1115ft 83kts
12-Jan-19 14:51 35.228146 -120.617727 285 675ft 78kts
12-Jan-19 14:52 35.235536 -120.638022 304 216ft 62kts
12-Jan-19 14:53 35.247259 -120.659305 303 669ft 76kts
12-Jan-19 14:54 35.251947 -120.681456 218 1153ft 75kts
12-Jan-19 14:55 35.233809 -120.673950 120 1208ft 88kts
12-Jan-19 14:56 35.221448 -120.648039 119 1208ft 88kts
12-Jan-19 14:57 35.209487 -120.622983 119 1199ft 81kts
12-Jan-19 14:58 35.220521 -120.609977 321 768ft 75kts
12-Jan-19 14:59 35.231561 -120.630946 304 345ft 70kts
12-Jan-19 15:00 35.242551 -120.650638 302 341ft 79kts
12-Jan-19 15:01 35.254769 -120.673240 302 719ft 79kts
12-Jan-19 15:02 35.259933 -120.696657 220 1074ft 79kts
12-Jan-19 15:03 35.243127 -120.683401 121 1216ft 93kts
12-Jan-19 15:04 35.229988 -120.657279 122 1215ft 91kts
12-Jan-19 15:05 35.215687 -120.630880 123 1215ft 93kts
12-Jan-19 15:06 35.222584 -120.620094 332 769ft 84kts
12-Jan-19 15:06 35.233557 -120.634365 304 231ft 56kts
12-Jan-19 15:07 35.237480 -120.639917 8 216ft 0kts
12-Jan-19 15:08 35.237584 -120.639896 13 216ft 4kts
12-Jan-19 15:09 35.238238 -120.639962 305 216ft 0kts
12-Jan-19 15:10 35.238238 -120.639962 305 216ft 0kts
12-Jan-19 15:11 35.238238 -120.639962 305 216ft 0kts
12-Jan-19 15:12 35.238238 -120.639962 305 216ft 0kts
12-Jan-19 15:13 35.238238 -120.639962 305 216ft 0kts
12-Jan-19 15:14 35.238238 -120.639962 305 216ft 0kts
12-Jan-19 15:15 35.238238 -120.639962 305 216ft 0kts
12-Jan-19 15:16 35.238238 -120.639962 305 216ft 0kts
12-Jan-19 15:17 35.238238 -120.639962 305 216ft 0kts
12-Jan-19 15:18 35.238238 -120.639962 305 216ft 0kts
12-Jan-19 15:19 35.238238 -120.639961 305 216ft 0kts
12-Jan-19 15:20 35.238238 -120.639961 305 216ft 0kts
12-Jan-19 15:21 35.238238 -120.639961 305 216ft 0kts

Navigation Log

Ident Type
Flight plan parsing failed, navigation log unavailable